Berlin, NH (03570)

9:03 PM EST on February 08, 2016 (GMT -0500)
Berlin Norwegian village | | Change Station
CLOSE
Current Station
Personal Weather Station
Location: Berlin, NH
Elevation: 1099 ft
Nearby Weather Stations
Active Advisory: Winter Weather Advisory Active Notice: Public Information Statement

Elev 1099 ft 44.48 °N, 71.17 °W | Updated 11 seconds ago

Overcast
Overcast
17.4 °F
Feels Like 17 °F
N
0.0
Wind Variable Wind from SW
Gusts 0.7 mph

Today
High -- | Low -- °F
--% Chance of Precip.
Yesterday
High -- | Low -- °F
Precip. -- in
Pressure 29.87 in
Visibility 3.0 miles
Clouds Overcast 3100 ft
Windchill 17 °F
Dew Point 2 °F
Humidity 51%
Rainfall 28.09 in
Snow Depth Not available.
6:55 AM 5:03 PM
New Moon, 0% visible
METAR KBML 090152Z AUTO 00000KT 3SM -SN OVC031 M07/M13 A2980 RMK AO2 SNB13 SLP113 P0000 T10721128
Pressure 29.87 in
Visibility 3.0 miles
Clouds Overcast 3100 ft
Windchill 17 °F
Dew Point 2 °F
Humidity 51%
Rainfall 28.09 in
Snow Depth Not available.
6:55 AM 5:03 PM
New Moon, 0% visible
METAR KBML 090152Z AUTO 00000KT 3SM -SN OVC031 M07/M13 A2980 RMK AO2 SNB13 SLP113 P0000 T10721128

10-Day Weather Forecast

Almanac

Astronomy

Feb. 08, 2016 Rise Set
Actual Time
Civil Twilight
Nautical Twilight
Astronomical Twilight
Moon
Length of Visible Light
Length of Day
Tomorrow will be .
, % of the Moon is Illuminated

Today's Extremes

State Highs State Lows

Community

WunderPhotos

Upload Photos

1,891,527 photos uploaded!

WunderBlog® & News

Nearby

Air Quality

  Air Quality AQ Index Pollutant
Not available.

Snow Depth

Station Depth Elevation

Earthquake Activity

City Distance Mag. Time & Date
Minimum magnitude displayed is 2.5.

Coastal Water Temperatures

Place Temperature

Stations

Nearby Weather Stations

Station Location Temp. Windchill Dew Point Humidity Wind Precip. Elev Updated Type
                   

Watches & Warnings

Winter Weather Advisory
Issued: 3:39 PM EST Feb. 8, 2016 – National Weather Service

... Winter Weather Advisory remains in effect until noon EST
Tuesday...

* hazard types... snow.

* Accumulations... snow accumulation of 3 to 6 inches.

* Timing... snow continues into Tuesday.

* Impacts... roads will become snow covered and slippery. Strong
winds will cause blowing and drifting snow and could lead to
low visibility in spots.

* Winds... northeast 10 to 15 mph with gusts up to 25 mph.

* Temperatures... in the teens.

Precautionary/preparedness actions...

A Winter Weather Advisory for snow means that periods of snow
will cause primarily travel difficulties. Be prepared for snow
covered roads and limited visibilities... and use caution while
driving.